createdAt,value
2016-06-29T00:03:00.952Z,0
2016-06-29T00:08:00.337Z,0
2016-06-29T00:13:00.922Z,0
2016-06-29T00:18:00.906Z,0
2016-06-29T00:23:00.874Z,0
2016-06-29T00:28:00.313Z,0
2016-06-29T00:33:00.910Z,0
2016-06-29T00:38:00.855Z,0
2016-06-29T00:42:59.678Z,0
2016-06-29T00:48:00.883Z,0
2016-06-29T00:53:00.819Z,0
2016-06-29T00:58:00.810Z,0
2016-06-29T01:03:00.229Z,0
2016-06-29T01:08:00.187Z,0
2016-06-29T01:13:00.179Z,0
2016-06-29T01:18:00.757Z,0
2016-06-29T01:23:00.139Z,0
2016-06-29T01:28:00.118Z,0
2016-06-29T01:33:00.097Z,0
2016-06-29T01:38:00.717Z,0
2016-06-29T01:43:00.071Z,0
2016-06-29T01:48:00.055Z,0
2016-06-29T01:53:00.059Z,0
2016-06-29T01:58:00.056Z,0
2016-06-29T02:03:00.583Z,0
2016-06-29T02:07:59.994Z,0
2016-06-29T02:13:00.571Z,0
2016-06-29T02:18:00.574Z,0
2016-06-29T02:23:00.580Z,0
2016-06-29T02:27:59.971Z,0
2016-06-29T02:32:59.874Z,0
2016-06-29T02:37:59.901Z,0
2016-06-29T02:43:00.472Z,0
2016-06-29T02:47:59.896Z,0
2016-06-29T02:52:59.226Z,0
2016-06-29T02:58:00.440Z,0
2016-06-29T03:02:59.847Z,0
2016-06-29T03:08:00.440Z,0
2016-06-29T03:13:00.377Z,0
2016-06-29T03:18:00.416Z,0
2016-06-29T03:23:00.393Z,0
2016-06-29T03:28:00.362Z,0
2016-06-29T03:32:59.701Z,0
2016-06-29T03:38:00.291Z,0
2016-06-29T03:43:00.307Z,0
2016-06-29T03:47:59.695Z,0
2016-06-29T03:52:59.056Z,0
2016-06-29T03:58:00.236Z,0
2016-06-29T04:02:59.629Z,0
2016-06-29T04:08:00.226Z,0
2016-06-29T04:12:59.585Z,0
2016-06-29T04:18:00.233Z,5
2016-06-29T04:23:00.195Z,5
2016-06-29T04:27:58.927Z,5
2016-06-29T04:32:59.527Z,5
2016-06-29T04:38:00.131Z,20
2016-06-29T04:42:59.524Z,15
2016-06-29T04:47:59.495Z,5
2016-06-29T04:52:59.493Z,20
2016-06-29T04:58:00.060Z,25
2016-06-29T05:03:00.053Z,0
2016-06-29T05:08:00.054Z,0
2016-06-29T05:13:00.074Z,0
2016-06-29T05:17:59.430Z,0
2016-06-29T05:22:58.827Z,0
2016-06-29T05:27:58.827Z,0
2016-06-29T05:33:00.046Z,5
2016-06-29T05:37:59.410Z,0
2016-06-29T05:42:59.396Z,5
2016-06-29T05:47:59.364Z,0
2016-06-29T05:52:59.970Z,0
2016-06-29T05:57:59.972Z,0
2016-06-29T06:02:59.943Z,0
2016-06-29T06:07:59.335Z,0
2016-06-29T06:12:59.949Z,5
2016-06-29T06:17:59.915Z,0
2016-06-29T06:22:59.279Z,0
2016-06-29T06:27:59.895Z,10
2016-06-29T06:32:59.882Z,10
2016-06-29T06:37:59.882Z,5
2016-06-29T06:42:59.235Z,10
2016-06-29T06:47:59.855Z,10
2016-06-29T06:52:59.839Z,15
2016-06-29T06:57:59.225Z,20
2016-06-29T07:02:59.961Z,20
2016-06-29T07:07:59.846Z,40
2016-06-29T07:12:59.259Z,10
2016-06-29T07:17:59.791Z,15
2016-06-29T07:22:59.789Z,10
2016-06-29T07:28:00.045Z,5
2016-06-29T07:32:59.199Z,10
2016-06-29T07:37:59.796Z,15
2016-06-29T07:42:59.902Z,300
2016-06-29T07:47:59.186Z,475
2016-06-29T07:52:59.169Z,485
2016-06-29T07:57:59.795Z,440
2016-06-29T08:02:59.997Z,405
2016-06-29T08:07:59.773Z,325
2016-06-29T08:12:59.778Z,295
2016-06-29T08:17:59.817Z,195
2016-06-29T08:22:59.767Z,250
2016-06-29T08:27:59.774Z,465
2016-06-29T08:32:59.171Z,470
2016-06-29T08:37:59.753Z,310
2016-06-29T08:42:59.794Z,340
2016-06-29T08:47:59.797Z,620
2016-06-29T08:52:58.546Z,740
2016-06-29T08:57:58.567Z,550
2016-06-29T09:02:59.178Z,625
2016-06-29T09:07:59.779Z,460
2016-06-29T09:12:59.758Z,345
2016-06-29T09:17:59.769Z,245
2016-06-29T09:22:59.760Z,250
2016-06-29T09:27:59.162Z,290
2016-06-29T09:32:59.759Z,1800
2016-06-29T09:37:59.228Z,550
2016-06-29T09:42:59.812Z,355
2016-06-29T09:47:59.760Z,590
2016-06-29T09:52:59.202Z,620
2016-06-29T09:57:59.175Z,450
2016-06-29T10:02:59.773Z,505
2016-06-29T10:07:59.771Z,995
2016-06-29T10:12:59.825Z,710
2016-06-29T10:17:59.777Z,440
2016-06-29T10:22:59.829Z,320
2016-06-29T10:27:59.789Z,305
2016-06-29T10:32:59.781Z,580
2016-06-29T10:37:59.782Z,675
2016-06-29T10:42:58.557Z,1875
2016-06-29T10:47:59.226Z,1845
2016-06-29T10:52:59.771Z,505
2016-06-29T10:57:59.223Z,325
2016-06-29T11:02:59.815Z,265
2016-06-29T11:07:59.777Z,340
2016-06-29T11:12:58.596Z,515
2016-06-29T11:17:59.861Z,590
2016-06-29T11:22:59.808Z,560
2016-06-29T11:27:59.234Z,370
2016-06-29T11:32:59.190Z,310
2016-06-29T11:37:59.241Z,245
2016-06-29T11:42:59.857Z,470
2016-06-29T11:47:59.846Z,640
2016-06-29T11:52:59.819Z,715
2016-06-29T11:57:59.235Z,550
2016-06-29T12:09:50.302Z,170
2016-06-29T12:15:18.779Z,155
2016-06-29T12:45:33.562Z,365
